sensor_id;sensor_type;location;lat;lon;timestamp;temperature;humidity
77247;SHT35;66279;42.820;23.374;2023-04-06T00:01:25;0.60;74.81
77247;SHT35;66279;42.820;23.374;2023-04-06T00:03:51;0.65;75.34
77247;SHT35;66279;42.820;23.374;2023-04-06T00:06:16;0.56;74.85
77247;SHT35;66279;42.820;23.374;2023-04-06T00:08:42;0.56;75.13
77247;SHT35;66279;42.820;23.374;2023-04-06T00:11:08;0.53;75.17
77247;SHT35;66279;42.820;23.374;2023-04-06T00:13:34;0.58;75.49
77247;SHT35;66279;42.820;23.374;2023-04-06T00:16:00;0.56;75.14
77247;SHT35;66279;42.820;23.374;2023-04-06T00:18:25;0.58;75.47
77247;SHT35;66279;42.820;23.374;2023-04-06T00:20:51;0.53;75.44
77247;SHT35;66279;42.820;23.374;2023-04-06T00:23:17;0.55;75.81
77247;SHT35;66279;42.820;23.374;2023-04-06T00:25:43;0.55;75.97
77247;SHT35;66279;42.820;23.374;2023-04-06T00:28:08;0.56;76.12
77247;SHT35;66279;42.820;23.374;2023-04-06T00:30:34;0.62;76.08
77247;SHT35;66279;42.820;23.374;2023-04-06T00:33:00;0.60;76.09
77247;SHT35;66279;42.820;23.374;2023-04-06T00:35:26;0.60;76.17
77247;SHT35;66279;42.820;23.374;2023-04-06T00:37:51;0.60;76.07
77247;SHT35;66279;42.820;23.374;2023-04-06T00:40:17;0.58;76.09
77247;SHT35;66279;42.820;23.374;2023-04-06T00:42:43;0.56;76.77
77247;SHT35;66279;42.820;23.374;2023-04-06T00:45:09;0.60;76.48
77247;SHT35;66279;42.820;23.374;2023-04-06T00:47:35;0.60;76.17
77247;SHT35;66279;42.820;23.374;2023-04-06T00:50:00;0.58;76.39
77247;SHT35;66279;42.820;23.374;2023-04-06T00:52:26;0.60;76.64
77247;SHT35;66279;42.820;23.374;2023-04-06T00:54:52;0.60;76.56
77247;SHT35;66279;42.820;23.374;2023-04-06T00:57:17;0.62;76.33
77247;SHT35;66279;42.820;23.374;2023-04-06T00:59:43;0.58;76.54
77247;SHT35;66279;42.820;23.374;2023-04-06T01:02:09;0.58;76.30
77247;SHT35;66279;42.820;23.374;2023-04-06T01:04:35;0.60;76.69
77247;SHT35;66279;42.820;23.374;2023-04-06T01:07:01;0.60;76.18
77247;SHT35;66279;42.820;23.374;2023-04-06T01:09:30;0.60;76.77
77247;SHT35;66279;42.820;23.374;2023-04-06T01:11:56;0.63;76.68
77247;SHT35;66279;42.820;23.374;2023-04-06T01:14:22;0.65;76.14
77247;SHT35;66279;42.820;23.374;2023-04-06T01:16:48;0.65;76.87
77247;SHT35;66279;42.820;23.374;2023-04-06T01:19:14;0.66;76.18
77247;SHT35;66279;42.820;23.374;2023-04-06T01:21:40;0.63;76.28
77247;SHT35;66279;42.820;23.374;2023-04-06T01:24:06;0.60;76.31
77247;SHT35;66279;42.820;23.374;2023-04-06T01:26:33;0.58;76.50
77247;SHT35;66279;42.820;23.374;2023-04-06T01:28:59;0.58;76.77
77247;SHT35;66279;42.820;23.374;2023-04-06T01:31:25;0.59;76.27
77247;SHT35;66279;42.820;23.374;2023-04-06T01:33:51;0.56;76.47
77247;SHT35;66279;42.820;23.374;2023-04-06T01:36:17;0.55;76.71
77247;SHT35;66279;42.820;23.374;2023-04-06T01:38:43;0.55;76.67
77247;SHT35;66279;42.820;23.374;2023-04-06T01:41:08;0.59;76.72
77247;SHT35;66279;42.820;23.374;2023-04-06T01:43:34;0.63;76.68
77247;SHT35;66279;42.820;23.374;2023-04-06T01:46:00;0.62;76.68
77247;SHT35;66279;42.820;23.374;2023-04-06T01:48:26;0.59;76.70
77247;SHT35;66279;42.820;23.374;2023-04-06T01:50:52;0.60;77.08
77247;SHT35;66279;42.820;23.374;2023-04-06T01:53:18;0.62;77.11
77247;SHT35;66279;42.820;23.374;2023-04-06T01:55:43;0.63;76.71
77247;SHT35;66279;42.820;23.374;2023-04-06T01:58:09;0.65;76.32
77247;SHT35;66279;42.820;23.374;2023-04-06T02:00:34;0.65;76.70
77247;SHT35;66279;42.820;23.374;2023-04-06T02:03:00;0.62;76.91
77247;SHT35;66279;42.820;23.374;2023-04-06T02:05:26;0.62;77.20
77247;SHT35;66279;42.820;23.374;2023-04-06T02:07:51;0.63;77.38
77247;SHT35;66279;42.820;23.374;2023-04-06T02:10:17;0.63;77.27
77247;SHT35;66279;42.820;23.374;2023-04-06T02:12:42;0.62;77.28
77247;SHT35;66279;42.820;23.374;2023-04-06T02:15:08;0.60;77.29
77247;SHT35;66279;42.820;23.374;2023-04-06T02:17:34;0.59;77.50
77247;SHT35;66279;42.820;23.374;2023-04-06T02:20:00;0.56;77.82
77247;SHT35;66279;42.820;23.374;2023-04-06T02:22:25;0.58;77.76
77247;SHT35;66279;42.820;23.374;2023-04-06T02:24:51;0.52;77.89
77247;SHT35;66279;42.820;23.374;2023-04-06T02:27:16;0.53;78.16
77247;SHT35;66279;42.820;23.374;2023-04-06T02:29:42;0.52;77.92
77247;SHT35;66279;42.820;23.374;2023-04-06T02:32:07;0.49;77.96
77247;SHT35;66279;42.820;23.374;2023-04-06T02:34:33;0.49;78.13
77247;SHT35;66279;42.820;23.374;2023-04-06T02:36:58;0.48;78.24
77247;SHT35;66279;42.820;23.374;2023-04-06T02:39:24;0.51;78.33
77247;SHT35;66279;42.820;23.374;2023-04-06T02:41:50;0.52;78.21
77247;SHT35;66279;42.820;23.374;2023-04-06T02:44:15;0.46;77.96
77247;SHT35;66279;42.820;23.374;2023-04-06T02:46:41;0.46;78.32
77247;SHT35;66279;42.820;23.374;2023-04-06T02:49:06;0.48;78.17
77247;SHT35;66279;42.820;23.374;2023-04-06T02:51:32;0.48;78.60
77247;SHT35;66279;42.820;23.374;2023-04-06T02:53:58;0.46;78.73
77247;SHT35;66279;42.820;23.374;2023-04-06T02:56:24;0.51;78.33
77247;SHT35;66279;42.820;23.374;2023-04-06T02:58:50;0.48;78.09
77247;SHT35;66279;42.820;23.374;2023-04-06T03:01:15;0.51;78.19
77247;SHT35;66279;42.820;23.374;2023-04-06T03:03:41;0.51;78.29
77247;SHT35;66279;42.820;23.374;2023-04-06T03:06:07;0.49;77.97
77247;SHT35;66279;42.820;23.374;2023-04-06T03:08:32;0.52;77.90
77247;SHT35;66279;42.820;23.374;2023-04-06T03:10:58;0.58;77.72
77247;SHT35;66279;42.820;23.374;2023-04-06T03:13:23;0.56;77.98
77247;SHT35;66279;42.820;23.374;2023-04-06T03:15:49;0.56;78.02
77247;SHT35;66279;42.820;23.374;2023-04-06T03:18:14;0.59;78.12
77247;SHT35;66279;42.820;23.374;2023-04-06T03:20:40;0.56;78.12
77247;SHT35;66279;42.820;23.374;2023-04-06T03:23:05;0.53;78.21
77247;SHT35;66279;42.820;23.374;2023-04-06T03:25:31;0.53;78.14
77247;SHT35;66279;42.820;23.374;2023-04-06T03:27:56;0.53;78.10
77247;SHT35;66279;42.820;23.374;2023-04-06T03:30:22;0.55;78.21
77247;SHT35;66279;42.820;23.374;2023-04-06T03:32:48;0.55;78.27
77247;SHT35;66279;42.820;23.374;2023-04-06T03:35:13;0.56;78.35
77247;SHT35;66279;42.820;23.374;2023-04-06T03:37:39;0.56;78.39
77247;SHT35;66279;42.820;23.374;2023-04-06T03:40:06;0.55;78.03
77247;SHT35;66279;42.820;23.374;2023-04-06T03:42:31;0.52;78.35
77247;SHT35;66279;42.820;23.374;2023-04-06T03:44:58;0.56;78.77
77247;SHT35;66279;42.820;23.374;2023-04-06T03:47:24;0.52;78.64
77247;SHT35;66279;42.820;23.374;2023-04-06T03:49:50;0.58;78.08
77247;SHT35;66279;42.820;23.374;2023-04-06T03:52:15;0.53;78.02
77247;SHT35;66279;42.820;23.374;2023-04-06T03:54:41;0.51;78.15
77247;SHT35;66279;42.820;23.374;2023-04-06T03:57:06;0.52;78.34
77247;SHT35;66279;42.820;23.374;2023-04-06T03:59:32;0.53;78.61
77247;SHT35;66279;42.820;23.374;2023-04-06T04:01:58;0.56;78.13
77247;SHT35;66279;42.820;23.374;2023-04-06T04:04:23;0.56;78.10
77247;SHT35;66279;42.820;23.374;2023-04-06T04:06:49;0.56;78.26
77247;SHT35;66279;42.820;23.374;2023-04-06T04:09:14;0.53;78.17
77247;SHT35;66279;42.820;23.374;2023-04-06T04:11:40;0.51;78.34
77247;SHT35;66279;42.820;23.374;2023-04-06T04:14:05;0.51;78.48
77247;SHT35;66279;42.820;23.374;2023-04-06T04:16:31;0.53;78.21
77247;SHT35;66279;42.820;23.374;2023-04-06T04:18:56;0.53;77.84
77247;SHT35;66279;42.820;23.374;2023-04-06T04:21:24;0.52;78.36
77247;SHT35;66279;42.820;23.374;2023-04-06T04:23:51;0.53;78.20
77247;SHT35;66279;42.820;23.374;2023-04-06T04:26:18;0.53;78.05
77247;SHT35;66279;42.820;23.374;2023-04-06T04:28:43;0.55;77.89
77247;SHT35;66279;42.820;23.374;2023-04-06T04:31:09;0.59;78.05
77247;SHT35;66279;42.820;23.374;2023-04-06T04:33:34;0.58;77.70
77247;SHT35;66279;42.820;23.374;2023-04-06T04:36:00;0.55;77.51
77247;SHT35;66279;42.820;23.374;2023-04-06T04:38:25;0.60;77.67
77247;SHT35;66279;42.820;23.374;2023-04-06T04:40:51;0.59;77.60
77247;SHT35;66279;42.820;23.374;2023-04-06T04:43:16;0.59;77.22
77247;SHT35;66279;42.820;23.374;2023-04-06T04:45:42;0.59;77.15
77247;SHT35;66279;42.820;23.374;2023-04-06T04:48:07;0.62;77.68
77247;SHT35;66279;42.820;23.374;2023-04-06T04:50:34;0.69;77.48
77247;SHT35;66279;42.820;23.374;2023-04-06T04:52:59;0.66;77.77
77247;SHT35;66279;42.820;23.374;2023-04-06T04:55:25;0.68;76.90
77247;SHT35;66279;42.820;23.374;2023-04-06T04:57:51;0.65;77.17
77247;SHT35;66279;42.820;23.374;2023-04-06T05:00:16;0.60;77.21
77247;SHT35;66279;42.820;23.374;2023-04-06T05:02:42;0.59;77.38
77247;SHT35;66279;42.820;23.374;2023-04-06T05:05:08;0.62;77.25
77247;SHT35;66279;42.820;23.374;2023-04-06T05:07:34;0.66;77.56
77247;SHT35;66279;42.820;23.374;2023-04-06T05:09:59;0.66;77.99
77247;SHT35;66279;42.820;23.374;2023-04-06T05:12:25;0.69;77.60
77247;SHT35;66279;42.820;23.374;2023-04-06T05:14:53;0.73;77.47
77247;SHT35;66279;42.820;23.374;2023-04-06T05:17:19;0.73;77.92
77247;SHT35;66279;42.820;23.374;2023-04-06T05:19:44;0.76;77.70
77247;SHT35;66279;42.820;23.374;2023-04-06T05:22:11;0.83;77.69
77247;SHT35;66279;42.820;23.374;2023-04-06T05:24:36;0.80;77.90
77247;SHT35;66279;42.820;23.374;2023-04-06T05:27:02;0.82;77.64
77247;SHT35;66279;42.820;23.374;2023-04-06T05:29:28;0.90;77.13
77247;SHT35;66279;42.820;23.374;2023-04-06T05:31:54;0.90;77.72
77247;SHT35;66279;42.820;23.374;2023-04-06T05:34:20;0.96;77.53
77247;SHT35;66279;42.820;23.374;2023-04-06T05:36:45;0.99;76.86
77247;SHT35;66279;42.820;23.374;2023-04-06T05:39:11;0.96;77.06
77247;SHT35;66279;42.820;23.374;2023-04-06T05:41:37;0.97;76.65
77247;SHT35;66279;42.820;23.374;2023-04-06T05:44:03;1.03;76.32
77247;SHT35;66279;42.820;23.374;2023-04-06T05:46:28;1.07;76.58
77247;SHT35;66279;42.820;23.374;2023-04-06T05:48:54;1.08;76.86
77247;SHT35;66279;42.820;23.374;2023-04-06T05:51:19;1.14;77.13
77247;SHT35;66279;42.820;23.374;2023-04-06T05:53:45;1.17;76.51
77247;SHT35;66279;42.820;23.374;2023-04-06T05:56:11;1.24;76.13
77247;SHT35;66279;42.820;23.374;2023-04-06T05:58:37;1.23;75.56
77247;SHT35;66279;42.820;23.374;2023-04-06T06:01:03;1.28;76.10
77247;SHT35;66279;42.820;23.374;2023-04-06T06:03:30;1.32;75.87
77247;SHT35;66279;42.820;23.374;2023-04-06T06:06:02;1.41;75.64
77247;SHT35;66279;42.820;23.374;2023-04-06T06:08:29;1.44;75.51
77247;SHT35;66279;42.820;23.374;2023-04-06T06:10:54;1.42;75.52
77247;SHT35;66279;42.820;23.374;2023-04-06T06:13:20;1.49;75.50
77247;SHT35;66279;42.820;23.374;2023-04-06T06:15:47;1.61;75.77
77247;SHT35;66279;42.820;23.374;2023-04-06T06:18:12;1.66;75.01
77247;SHT35;66279;42.820;23.374;2023-04-06T06:20:38;1.69;74.31
77247;SHT35;66279;42.820;23.374;2023-04-06T06:23:03;1.76;75.09
77247;SHT35;66279;42.820;23.374;2023-04-06T06:25:29;1.83;74.44
77247;SHT35;66279;42.820;23.374;2023-04-06T06:27:56;1.96;74.53
77247;SHT35;66279;42.820;23.374;2023-04-06T06:30:22;1.99;73.53
77247;SHT35;66279;42.820;23.374;2023-04-06T06:32:48;1.99;73.55
77247;SHT35;66279;42.820;23.374;2023-04-06T06:35:13;2.02;73.57
77247;SHT35;66279;42.820;23.374;2023-04-06T06:37:39;2.09;73.77
77247;SHT35;66279;42.820;23.374;2023-04-06T06:40:05;2.20;73.15
77247;SHT35;66279;42.820;23.374;2023-04-06T06:42:31;2.20;73.18
77247;SHT35;66279;42.820;23.374;2023-04-06T06:44:56;2.36;73.88
77247;SHT35;66279;42.820;23.374;2023-04-06T06:47:22;2.30;72.78
77247;SHT35;66279;42.820;23.374;2023-04-06T06:49:47;2.19;73.43
77247;SHT35;66279;42.820;23.374;2023-04-06T06:52:13;2.21;73.33
77247;SHT35;66279;42.820;23.374;2023-04-06T06:54:38;2.21;73.43
77247;SHT35;66279;42.820;23.374;2023-04-06T06:57:04;2.23;72.71
77247;SHT35;66279;42.820;23.374;2023-04-06T06:59:30;2.20;73.09
77247;SHT35;66279;42.820;23.374;2023-04-06T07:01:55;2.16;73.22
77247;SHT35;66279;42.820;23.374;2023-04-06T07:04:21;2.14;73.29
77247;SHT35;66279;42.820;23.374;2023-04-06T07:06:46;1.98;73.12
77247;SHT35;66279;42.820;23.374;2023-04-06T07:09:12;1.98;73.23
77247;SHT35;66279;42.820;23.374;2023-04-06T07:11:37;2.00;73.30
77247;SHT35;66279;42.820;23.374;2023-04-06T07:14:03;1.98;73.64
77247;SHT35;66279;42.820;23.374;2023-04-06T07:16:28;1.96;73.54
77247;SHT35;66279;42.820;23.374;2023-04-06T07:18:54;2.07;73.08
77247;SHT35;66279;42.820;23.374;2023-04-06T07:21:19;2.11;72.37
77247;SHT35;66279;42.820;23.374;2023-04-06T07:23:45;2.10;73.21
77247;SHT35;66279;42.820;23.374;2023-04-06T07:26:13;2.05;72.83
77247;SHT35;66279;42.820;23.374;2023-04-06T07:28:38;2.03;72.40
77247;SHT35;66279;42.820;23.374;2023-04-06T07:31:04;1.96;72.27
77247;SHT35;66279;42.820;23.374;2023-04-06T07:33:30;1.96;71.78
77247;SHT35;66279;42.820;23.374;2023-04-06T07:35:56;1.96;72.21
77247;SHT35;66279;42.820;23.374;2023-04-06T07:38:23;2.03;71.82
77247;SHT35;66279;42.820;23.374;2023-04-06T07:40:49;2.02;71.85
77247;SHT35;66279;42.820;23.374;2023-04-06T07:43:15;2.07;71.44
77247;SHT35;66279;42.820;23.374;2023-04-06T07:45:40;2.11;71.14
77247;SHT35;66279;42.820;23.374;2023-04-06T07:48:06;2.21;70.68
77247;SHT35;66279;42.820;23.374;2023-04-06T07:50:32;2.17;70.84
77247;SHT35;66279;42.820;23.374;2023-04-06T07:52:57;2.21;71.02
77247;SHT35;66279;42.820;23.374;2023-04-06T07:55:23;2.24;70.58
77247;SHT35;66279;42.820;23.374;2023-04-06T07:57:48;2.36;70.51
77247;SHT35;66279;42.820;23.374;2023-04-06T08:00:14;2.38;69.62
77247;SHT35;66279;42.820;23.374;2023-04-06T08:02:40;2.36;69.37
77247;SHT35;66279;42.820;23.374;2023-04-06T08:05:05;2.37;68.79
77247;SHT35;66279;42.820;23.374;2023-04-06T08:07:31;2.34;69.09
77247;SHT35;66279;42.820;23.374;2023-04-06T08:09:56;2.41;69.00
77247;SHT35;66279;42.820;23.374;2023-04-06T08:12:22;2.55;69.03
77247;SHT35;66279;42.820;23.374;2023-04-06T08:14:47;2.60;68.18
77247;SHT35;66279;42.820;23.374;2023-04-06T08:17:13;2.75;68.77
77247;SHT35;66279;42.820;23.374;2023-04-06T08:19:39;2.84;68.75
77247;SHT35;66279;42.820;23.374;2023-04-06T08:22:04;2.87;68.25
77247;SHT35;66279;42.820;23.374;2023-04-06T08:24:30;2.85;67.10
77247;SHT35;66279;42.820;23.374;2023-04-06T08:26:57;2.93;67.41
77247;SHT35;66279;42.820;23.374;2023-04-06T08:29:23;2.93;67.43
77247;SHT35;66279;42.820;23.374;2023-04-06T08:31:48;3.00;67.73
77247;SHT35;66279;42.820;23.374;2023-04-06T08:34:14;3.05;66.96
77247;SHT35;66279;42.820;23.374;2023-04-06T08:36:41;3.02;67.03
77247;SHT35;66279;42.820;23.374;2023-04-06T08:39:06;3.16;68.03
77247;SHT35;66279;42.820;23.374;2023-04-06T08:41:32;3.34;66.62
77247;SHT35;66279;42.820;23.374;2023-04-06T08:43:58;3.36;65.74
77247;SHT35;66279;42.820;23.374;2023-04-06T08:46:25;3.47;65.25
77247;SHT35;66279;42.820;23.374;2023-04-06T08:48:59;3.44;66.09
77247;SHT35;66279;42.820;23.374;2023-04-06T08:51:26;3.63;65.98
77247;SHT35;66279;42.820;23.374;2023-04-06T08:53:56;3.81;65.24
77247;SHT35;66279;42.820;23.374;2023-04-06T08:56:22;3.88;65.16
77247;SHT35;66279;42.820;23.374;2023-04-06T08:58:48;3.84;64.73
77247;SHT35;66279;42.820;23.374;2023-04-06T09:01:17;3.89;64.91
77247;SHT35;66279;42.820;23.374;2023-04-06T09:03:43;3.88;63.27
77247;SHT35;66279;42.820;23.374;2023-04-06T09:06:10;3.88;64.31
77247;SHT35;66279;42.820;23.374;2023-04-06T09:08:39;3.91;64.58
77247;SHT35;66279;42.820;23.374;2023-04-06T09:11:05;4.03;64.45
77247;SHT35;66279;42.820;23.374;2023-04-06T09:13:31;4.08;63.29
77247;SHT35;66279;42.820;23.374;2023-04-06T09:16:08;4.01;62.98
77247;SHT35;66279;42.820;23.374;2023-04-06T09:18:34;3.95;63.49
77247;SHT35;66279;42.820;23.374;2023-04-06T09:21:05;3.97;63.95
77247;SHT35;66279;42.820;23.374;2023-04-06T09:23:31;3.87;63.22
77247;SHT35;66279;42.820;23.374;2023-04-06T09:26:11;3.78;63.62
77247;SHT35;66279;42.820;23.374;2023-04-06T09:28:54;3.73;64.60
77247;SHT35;66279;42.820;23.374;2023-04-06T09:31:30;3.84;64.85
77247;SHT35;66279;42.820;23.374;2023-04-06T09:33:59;3.84;64.20
77247;SHT35;66279;42.820;23.374;2023-04-06T09:36:32;3.82;63.14
77247;SHT35;66279;42.820;23.374;2023-04-06T09:39:01;3.78;63.98
77247;SHT35;66279;42.820;23.374;2023-04-06T09:41:32;3.85;63.78
77247;SHT35;66279;42.820;23.374;2023-04-06T09:44:09;3.95;63.65
77247;SHT35;66279;42.820;23.374;2023-04-06T09:46:39;4.03;63.42
77247;SHT35;66279;42.820;23.374;2023-04-06T09:49:06;4.23;63.98
77247;SHT35;66279;42.820;23.374;2023-04-06T09:51:40;4.22;62.59
77247;SHT35;66279;42.820;23.374;2023-04-06T09:54:07;4.12;61.75
77247;SHT35;66279;42.820;23.374;2023-04-06T09:56:46;4.13;63.43
77247;SHT35;66279;42.820;23.374;2023-04-06T09:59:38;4.15;62.39
77247;SHT35;66279;42.820;23.374;2023-04-06T10:02:08;4.19;62.19
77247;SHT35;66279;42.820;23.374;2023-04-06T10:04:41;4.32;62.04
77247;SHT35;66279;42.820;23.374;2023-04-06T10:07:09;4.29;61.79
77247;SHT35;66279;42.820;23.374;2023-04-06T10:09:37;4.39;62.11
77247;SHT35;66279;42.820;23.374;2023-04-06T10:12:04;4.57;62.42
77247;SHT35;66279;42.820;23.374;2023-04-06T10:14:34;4.67;61.05
77247;SHT35;66279;42.820;23.374;2023-04-06T10:17:03;4.63;61.86
77247;SHT35;66279;42.820;23.374;2023-04-06T10:22:18;4.74;60.41
77247;SHT35;66279;42.820;23.374;2023-04-06T10:24:48;4.91;60.21
77247;SHT35;66279;42.820;23.374;2023-04-06T10:27:13;5.02;59.70
77247;SHT35;66279;42.820;23.374;2023-04-06T10:29:43;5.02;59.22
77247;SHT35;66279;42.820;23.374;2023-04-06T10:32:10;5.12;58.31
77247;SHT35;66279;42.820;23.374;2023-04-06T10:34:36;5.01;57.98
77247;SHT35;66279;42.820;23.374;2023-04-06T10:37:14;5.14;58.91
77247;SHT35;66279;42.820;23.374;2023-04-06T10:39:51;5.22;58.34
77247;SHT35;66279;42.820;23.374;2023-04-06T10:42:24;5.40;58.79
77247;SHT35;66279;42.820;23.374;2023-04-06T10:44:50;5.66;58.24
77247;SHT35;66279;42.820;23.374;2023-04-06T10:47:17;5.90;56.97
77247;SHT35;66279;42.820;23.374;2023-04-06T10:49:45;6.28;57.42
77247;SHT35;66279;42.820;23.374;2023-04-06T10:52:11;6.37;56.14
77247;SHT35;66279;42.820;23.374;2023-04-06T10:54:41;6.68;54.76
77247;SHT35;66279;42.820;23.374;2023-04-06T10:57:09;6.75;53.81
77247;SHT35;66279;42.820;23.374;2023-04-06T10:59:35;7.21;54.99
77247;SHT35;66279;42.820;23.374;2023-04-06T11:02:00;7.28;52.65
77247;SHT35;66279;42.820;23.374;2023-04-06T11:04:26;7.47;51.74
77247;SHT35;66279;42.820;23.374;2023-04-06T11:06:51;7.58;52.67
77247;SHT35;66279;42.820;23.374;2023-04-06T11:09:27;7.92;52.32
77247;SHT35;66279;42.820;23.374;2023-04-06T11:11:54;8.10;50.57
77247;SHT35;66279;42.820;23.374;2023-04-06T11:14:20;8.40;51.25
77247;SHT35;66279;42.820;23.374;2023-04-06T11:16:47;8.79;50.96
77247;SHT35;66279;42.820;23.374;2023-04-06T11:19:16;8.63;48.87
77247;SHT35;66279;42.820;23.374;2023-04-06T11:21:49;8.17;48.97
77247;SHT35;66279;42.820;23.374;2023-04-06T11:24:17;8.57;49.99
77247;SHT35;66279;42.820;23.374;2023-04-06T11:26:48;8.60;48.87
77247;SHT35;66279;42.820;23.374;2023-04-06T11:29:21;8.96;47.75
77247;SHT35;66279;42.820;23.374;2023-04-06T11:31:49;9.61;49.65
77247;SHT35;66279;42.820;23.374;2023-04-06T11:34:22;9.73;48.34
77247;SHT35;66279;42.820;23.374;2023-04-06T11:36:56;9.32;47.39
77247;SHT35;66279;42.820;23.374;2023-04-06T11:39:26;9.74;48.60
77247;SHT35;66279;42.820;23.374;2023-04-06T11:41:54;8.91;47.50
77247;SHT35;66279;42.820;23.374;2023-04-06T11:44:38;9.01;50.18
77247;SHT35;66279;42.820;23.374;2023-04-06T11:47:09;8.58;48.68
77247;SHT35;66279;42.820;23.374;2023-04-06T11:49:40;8.91;48.07
77247;SHT35;66279;42.820;23.374;2023-04-06T11:52:20;9.54;48.53
77247;SHT35;66279;42.820;23.374;2023-04-06T11:54:47;9.84;47.18
77247;SHT35;66279;42.820;23.374;2023-04-06T11:57:13;9.94;44.51
77247;SHT35;66279;42.820;23.374;2023-04-06T11:59:40;10.32;44.72
77247;SHT35;66279;42.820;23.374;2023-04-06T12:02:06;10.59;43.98
77247;SHT35;66279;42.820;23.374;2023-04-06T12:04:34;9.80;44.96
77247;SHT35;66279;42.820;23.374;2023-04-06T12:07:00;9.50;43.86
77247;SHT35;66279;42.820;23.374;2023-04-06T12:09:26;9.50;44.81
77247;SHT35;66279;42.820;23.374;2023-04-06T12:11:51;9.36;45.08
77247;SHT35;66279;42.820;23.374;2023-04-06T12:14:17;9.53;44.44
77247;SHT35;66279;42.820;23.374;2023-04-06T12:16:42;9.66;44.24
77247;SHT35;66279;42.820;23.374;2023-04-06T12:19:09;9.47;45.32
77247;SHT35;66279;42.820;23.374;2023-04-06T12:21:34;9.27;46.64
77247;SHT35;66279;42.820;23.374;2023-04-06T12:24:03;9.01;44.96
77247;SHT35;66279;42.820;23.374;2023-04-06T12:26:29;8.96;44.56
77247;SHT35;66279;42.820;23.374;2023-04-06T12:28:55;9.16;45.71
77247;SHT35;66279;42.820;23.374;2023-04-06T12:31:22;9.48;43.76
77247;SHT35;66279;42.820;23.374;2023-04-06T12:33:49;9.19;43.51
77247;SHT35;66279;42.820;23.374;2023-04-06T12:36:17;9.25;45.83
77247;SHT35;66279;42.820;23.374;2023-04-06T12:38:47;9.51;42.61
77247;SHT35;66279;42.820;23.374;2023-04-06T12:41:13;9.27;42.95
77247;SHT35;66279;42.820;23.374;2023-04-06T12:43:40;9.11;43.99
77247;SHT35;66279;42.820;23.374;2023-04-06T12:46:05;9.23;46.47
77247;SHT35;66279;42.820;23.374;2023-04-06T12:48:31;9.42;46.86
77247;SHT35;66279;42.820;23.374;2023-04-06T12:50:58;9.64;44.34
77247;SHT35;66279;42.820;23.374;2023-04-06T12:53:25;9.35;43.28
77247;SHT35;66279;42.820;23.374;2023-04-06T12:55:51;8.91;43.08
77247;SHT35;66279;42.820;23.374;2023-04-06T12:58:17;8.57;43.79
77247;SHT35;66279;42.820;23.374;2023-04-06T13:00:43;8.23;45.32
77247;SHT35;66279;42.820;23.374;2023-04-06T13:03:08;8.60;46.84
77247;SHT35;66279;42.820;23.374;2023-04-06T13:05:34;8.22;44.37
77247;SHT35;66279;42.820;23.374;2023-04-06T13:08:00;8.16;46.15
77247;SHT35;66279;42.820;23.374;2023-04-06T13:10:26;8.47;46.39
77247;SHT35;66279;42.820;23.374;2023-04-06T13:12:52;8.64;44.46
77247;SHT35;66279;42.820;23.374;2023-04-06T13:15:17;8.81;44.73
77247;SHT35;66279;42.820;23.374;2023-04-06T13:17:43;8.65;44.78
77247;SHT35;66279;42.820;23.374;2023-04-06T13:20:09;8.53;45.74
77247;SHT35;66279;42.820;23.374;2023-04-06T13:22:35;8.44;44.11
77247;SHT35;66279;42.820;23.374;2023-04-06T13:25:02;8.30;45.26
77247;SHT35;66279;42.820;23.374;2023-04-06T13:27:28;8.13;45.26
77247;SHT35;66279;42.820;23.374;2023-04-06T13:29:55;8.03;46.65
77247;SHT35;66279;42.820;23.374;2023-04-06T13:32:21;8.03;45.44
77247;SHT35;66279;42.820;23.374;2023-04-06T13:34:46;8.12;45.42
77247;SHT35;66279;42.820;23.374;2023-04-06T13:37:14;8.22;46.57
77247;SHT35;66279;42.820;23.374;2023-04-06T13:39:40;7.99;45.28
77247;SHT35;66279;42.820;23.374;2023-04-06T13:42:05;7.99;47.19
77247;SHT35;66279;42.820;23.374;2023-04-06T13:44:32;7.85;47.34
77247;SHT35;66279;42.820;23.374;2023-04-06T13:46:58;7.47;45.93
77247;SHT35;66279;42.820;23.374;2023-04-06T13:49:23;7.17;46.36
77247;SHT35;66279;42.820;23.374;2023-04-06T13:51:49;7.35;47.25
77247;SHT35;66279;42.820;23.374;2023-04-06T13:54:15;7.37;47.04
77247;SHT35;66279;42.820;23.374;2023-04-06T13:56:41;7.35;47.53
77247;SHT35;66279;42.820;23.374;2023-04-06T13:59:06;7.43;46.83
77247;SHT35;66279;42.820;23.374;2023-04-06T14:01:32;7.40;47.23
77247;SHT35;66279;42.820;23.374;2023-04-06T14:03:58;7.37;47.78
77247;SHT35;66279;42.820;23.374;2023-04-06T14:06:23;7.38;47.09
77247;SHT35;66279;42.820;23.374;2023-04-06T14:08:50;7.48;47.01
77247;SHT35;66279;42.820;23.374;2023-04-06T14:11:15;7.50;46.89
77247;SHT35;66279;42.820;23.374;2023-04-06T14:13:41;7.43;46.90
77247;SHT35;66279;42.820;23.374;2023-04-06T14:16:07;7.43;47.15
77247;SHT35;66279;42.820;23.374;2023-04-06T14:18:33;7.51;45.98
77247;SHT35;66279;42.820;23.374;2023-04-06T14:20:59;7.34;47.08
77247;SHT35;66279;42.820;23.374;2023-04-06T14:23:27;7.41;48.07
77247;SHT35;66279;42.820;23.374;2023-04-06T14:26:07;7.40;47.34
77247;SHT35;66279;42.820;23.374;2023-04-06T14:28:34;7.20;47.68
77247;SHT35;66279;42.820;23.374;2023-04-06T14:31:02;7.07;48.39
77247;SHT35;66279;42.820;23.374;2023-04-06T14:33:31;6.97;48.94
77247;SHT35;66279;42.820;23.374;2023-04-06T14:35:56;6.77;49.35
77247;SHT35;66279;42.820;23.374;2023-04-06T14:38:22;6.80;50.57
77247;SHT35;66279;42.820;23.374;2023-04-06T14:40:48;7.01;49.69
77247;SHT35;66279;42.820;23.374;2023-04-06T14:43:13;6.99;49.49
77247;SHT35;66279;42.820;23.374;2023-04-06T14:45:40;7.04;50.26
77247;SHT35;66279;42.820;23.374;2023-04-06T14:48:06;6.99;50.80
77247;SHT35;66279;42.820;23.374;2023-04-06T14:50:32;7.17;50.38
77247;SHT35;66279;42.820;23.374;2023-04-06T14:52:58;7.43;50.30
77247;SHT35;66279;42.820;23.374;2023-04-06T14:55:25;7.48;50.12
77247;SHT35;66279;42.820;23.374;2023-04-06T14:57:50;7.55;49.37
77247;SHT35;66279;42.820;23.374;2023-04-06T15:00:16;7.57;48.25
77247;SHT35;66279;42.820;23.374;2023-04-06T15:02:42;7.55;48.03
77247;SHT35;66279;42.820;23.374;2023-04-06T15:05:08;7.40;47.78
77247;SHT35;66279;42.820;23.374;2023-04-06T15:07:34;7.21;47.49
77247;SHT35;66279;42.820;23.374;2023-04-06T15:10:00;7.08;49.04
77247;SHT35;66279;42.820;23.374;2023-04-06T15:12:25;7.03;48.59
77247;SHT35;66279;42.820;23.374;2023-04-06T15:14:51;6.89;49.47
77247;SHT35;66279;42.820;23.374;2023-04-06T15:17:16;6.86;50.12
77247;SHT35;66279;42.820;23.374;2023-04-06T15:19:42;6.76;50.53
77247;SHT35;66279;42.820;23.374;2023-04-06T15:22:07;6.58;50.38
77247;SHT35;66279;42.820;23.374;2023-04-06T15:24:33;6.18;51.03
77247;SHT35;66279;42.820;23.374;2023-04-06T15:26:58;6.10;52.01
77247;SHT35;66279;42.820;23.374;2023-04-06T15:29:25;6.13;51.79